createdAt,value
2017-09-04T00:01:59.471Z,6.30
2017-09-04T00:04:29.374Z,7.73
2017-09-04T00:06:59.686Z,7.30
2017-09-04T00:09:29.583Z,6.70
2017-09-04T00:11:59.917Z,6.50
2017-09-04T00:14:29.813Z,6.67
2017-09-04T00:17:00.039Z,5.97
2017-09-04T00:19:29.978Z,6.37
2017-09-04T00:21:59.943Z,5.73
2017-09-04T00:24:29.828Z,7.47
2017-09-04T00:26:59.709Z,6.17
2017-09-04T00:29:30.071Z,6.43
2017-09-04T00:31:59.994Z,6.50
2017-09-04T00:34:29.962Z,6.10
2017-09-04T00:36:59.897Z,6.60
2017-09-04T00:39:29.857Z,6.90
2017-09-04T00:42:00.115Z,6.40
2017-09-04T00:44:30.002Z,6.30
2017-09-04T00:47:00.477Z,6.33
2017-09-04T00:49:30.383Z,6.57
2017-09-04T00:52:00.723Z,5.57
2017-09-04T00:54:30.618Z,5.63
2017-09-04T00:57:00.901Z,5.70
2017-09-04T00:59:30.817Z,5.57
2017-09-04T01:02:01.061Z,6.47
2017-09-04T01:04:31.001Z,6.90
2017-09-04T01:07:00.921Z,5.90
2017-09-04T01:09:30.841Z,5.87
2017-09-04T01:12:00.797Z,5.70
2017-09-04T01:14:31.057Z,5.90
2017-09-04T01:17:00.955Z,5.80
2017-09-04T01:19:30.954Z,5.57
2017-09-04T01:22:00.865Z,6.43
2017-09-04T01:24:30.782Z,6.10
2017-09-04T01:27:01.138Z,5.47
2017-09-04T01:29:31.068Z,7.00
2017-09-04T01:32:01.351Z,5.50
2017-09-04T01:34:31.249Z,6.27
2017-09-04T01:37:01.624Z,5.37
2017-09-04T01:39:31.580Z,5.63
2017-09-04T01:42:01.956Z,5.10
2017-09-04T01:44:31.896Z,5.67
2017-09-04T01:47:02.267Z,5.20
2017-09-04T01:49:32.186Z,6.10
2017-09-04T01:52:02.507Z,6.60
2017-09-04T01:54:32.396Z,6.40
2017-09-04T01:57:02.783Z,6.43
2017-09-04T01:59:32.672Z,6.27
2017-09-04T02:02:02.899Z,5.93
2017-09-04T02:04:32.816Z,6.30
2017-09-04T02:07:03.225Z,5.07
2017-09-04T02:09:33.133Z,5.93
2017-09-04T02:12:03.478Z,6.50
2017-09-04T02:14:33.360Z,5.70
2017-09-04T02:17:03.693Z,5.70
2017-09-04T02:19:33.654Z,5.87
2017-09-04T02:22:03.959Z,5.83
2017-09-04T02:24:33.897Z,5.80
2017-09-04T02:27:04.296Z,5.83
2017-09-04T02:29:34.239Z,5.17
2017-09-04T02:32:04.516Z,5.20
2017-09-04T02:34:34.408Z,4.80
2017-09-04T02:37:04.851Z,6.03
2017-09-04T02:39:34.778Z,5.30
2017-09-04T02:42:05.096Z,4.47
2017-09-04T02:44:35.117Z,5.47
2017-09-04T02:47:05.447Z,5.43
2017-09-04T02:49:35.372Z,5.00
2017-09-04T02:52:05.684Z,5.43
2017-09-04T02:54:35.607Z,5.13
2017-09-04T02:57:05.921Z,5.00
2017-09-04T02:59:35.791Z,5.70
2017-09-04T03:02:06.221Z,5.40
2017-09-04T03:04:36.126Z,5.40
2017-09-04T03:07:06.384Z,5.40
2017-09-04T03:09:36.274Z,5.17
2017-09-04T03:12:06.631Z,5.43
2017-09-04T03:14:36.841Z,5.33
2017-09-04T03:17:07.177Z,5.20
2017-09-04T03:19:37.062Z,4.67
2017-09-04T03:22:06.978Z,5.10
2017-09-04T03:24:36.880Z,5.20
2017-09-04T03:27:06.786Z,6.07
2017-09-04T03:29:37.032Z,5.80
2017-09-04T03:32:06.983Z,5.20
2017-09-04T03:34:36.909Z,5.23
2017-09-04T03:37:07.329Z,4.90
2017-09-04T03:39:37.202Z,5.40
2017-09-04T03:42:07.212Z,4.77
2017-09-04T03:44:37.207Z,6.00
2017-09-04T03:47:07.530Z,5.20
2017-09-04T03:49:37.407Z,6.17
2017-09-04T03:52:07.622Z,6.53
2017-09-04T03:54:37.503Z,5.57
2017-09-04T03:57:07.734Z,5.20
2017-09-04T03:59:37.589Z,6.07
2017-09-04T04:02:07.954Z,5.27
2017-09-04T04:04:37.882Z,6.60
2017-09-04T04:07:08.206Z,5.60
2017-09-04T04:09:38.087Z,6.30
2017-09-04T04:12:08.343Z,6.30
2017-09-04T04:14:38.199Z,6.90
2017-09-04T04:17:08.466Z,5.90
2017-09-04T04:19:38.349Z,6.20
2017-09-04T04:22:08.706Z,6.20
2017-09-04T04:24:38.563Z,6.13
2017-09-04T04:27:08.943Z,6.00
2017-09-04T04:29:38.860Z,6.17
2017-09-04T04:32:09.303Z,6.70
2017-09-04T04:34:39.206Z,6.97
2017-09-04T04:37:09.520Z,6.00
2017-09-04T04:39:39.409Z,5.90
2017-09-04T04:42:09.661Z,6.10
2017-09-04T04:44:39.692Z,5.57
2017-09-04T04:47:10.050Z,5.90
2017-09-04T04:49:39.958Z,5.90
2017-09-04T04:52:09.880Z,5.90
2017-09-04T04:54:39.770Z,5.87
2017-09-04T04:57:09.713Z,5.70
2017-09-04T04:59:40.000Z,6.00
2017-09-04T05:02:10.659Z,6.20
2017-09-04T05:04:41.020Z,5.20
2017-09-04T05:07:10.918Z,6.17
2017-09-04T05:09:41.283Z,6.40
2017-09-04T05:12:11.196Z,5.50
2017-09-04T05:14:41.543Z,5.83
2017-09-04T05:17:11.455Z,6.80
2017-09-04T05:19:41.736Z,7.43
2017-09-04T05:22:11.716Z,6.77
2017-09-04T05:24:41.997Z,6.60
2017-09-04T05:27:11.887Z,7.73
2017-09-04T05:29:42.222Z,7.60
2017-09-04T05:32:12.134Z,7.43
2017-09-04T05:34:42.469Z,7.23
2017-09-04T05:37:13.511Z,8.50
2017-09-04T05:39:43.831Z,8.57
2017-09-04T05:42:13.751Z,8.73
2017-09-04T05:44:44.082Z,8.37
2017-09-04T05:47:14.109Z,8.60
2017-09-04T05:49:44.464Z,8.30
2017-09-04T05:52:14.435Z,8.10
2017-09-04T05:54:44.721Z,8.30
2017-09-04T05:57:14.655Z,8.83
2017-09-04T05:59:44.919Z,10.10
2017-09-04T06:02:14.816Z,9.23
2017-09-04T06:04:45.045Z,10.50
2017-09-04T06:07:15.808Z,10.70
2017-09-04T06:09:46.173Z,10.27
2017-09-04T06:12:16.072Z,11.23
2017-09-04T06:14:46.488Z,10.90
2017-09-04T06:17:16.414Z,10.00
2017-09-04T06:19:46.717Z,10.30
2017-09-04T06:22:18.304Z,9.67
2017-09-04T06:24:48.564Z,9.57
2017-09-04T06:27:18.478Z,11.60
2017-09-04T06:29:48.753Z,10.90
2017-09-04T06:32:18.654Z,10.27
2017-09-04T06:34:49.016Z,11.10
2017-09-04T06:37:18.946Z,10.23
2017-09-04T06:39:49.225Z,10.97
2017-09-04T06:42:19.141Z,11.40
2017-09-04T06:44:49.454Z,11.30
2017-09-04T06:47:19.431Z,10.47
2017-09-04T06:49:49.676Z,11.40
2017-09-04T06:52:19.567Z,10.17
2017-09-04T06:54:49.846Z,10.47
2017-09-04T06:57:19.803Z,11.43
2017-09-04T06:59:50.037Z,10.63
2017-09-04T07:02:19.931Z,10.73
2017-09-04T07:04:49.920Z,9.80
2017-09-04T07:07:19.942Z,9.53
2017-09-04T07:09:49.845Z,9.80
2017-09-04T07:12:20.111Z,10.40
2017-09-04T07:14:50.034Z,9.13
2017-09-04T07:17:19.934Z,9.50
2017-09-04T07:19:49.845Z,8.30
2017-09-04T07:22:19.751Z,6.53
2017-09-04T07:24:50.019Z,7.67
2017-09-04T07:27:19.950Z,5.30
2017-09-04T07:29:49.876Z,5.93
2017-09-04T07:32:19.761Z,5.33
2017-09-04T07:34:49.661Z,6.13
2017-09-04T07:37:20.018Z,6.03
2017-09-04T07:39:49.936Z,4.77
2017-09-04T07:42:20.215Z,4.83
2017-09-04T07:44:50.112Z,4.60
2017-09-04T07:47:20.489Z,4.57
2017-09-04T07:49:50.467Z,4.37
2017-09-04T07:52:20.743Z,4.53
2017-09-04T07:54:50.694Z,3.70
2017-09-04T07:57:21.088Z,4.00
2017-09-04T07:59:50.990Z,3.40
2017-09-04T08:02:21.297Z,3.00
2017-09-04T08:04:51.231Z,2.80
2017-09-04T08:07:21.538Z,2.37
2017-09-04T08:09:51.452Z,2.73
2017-09-04T08:12:21.783Z,2.87
2017-09-04T08:14:51.746Z,3.43
2017-09-04T08:17:22.189Z,3.03
2017-09-04T08:19:52.063Z,4.60
2017-09-04T08:22:22.369Z,2.70
2017-09-04T08:24:52.307Z,3.13
2017-09-04T08:27:22.673Z,3.40
2017-09-04T08:29:52.738Z,3.83
2017-09-04T08:32:23.050Z,3.67
2017-09-04T08:34:53.115Z,4.23
2017-09-04T08:37:23.457Z,3.13
2017-09-04T08:39:53.400Z,3.70
2017-09-04T08:42:24.006Z,3.00
2017-09-04T08:44:54.007Z,3.27
2017-09-04T08:47:24.346Z,3.10
2017-09-04T08:49:54.380Z,3.10
2017-09-04T08:52:24.680Z,2.67
2017-09-04T08:54:54.607Z,3.53
2017-09-04T08:57:24.854Z,2.77
2017-09-04T08:59:54.790Z,3.10
2017-09-04T09:02:25.034Z,3.13
2017-09-04T09:04:54.956Z,2.53
2017-09-04T09:07:24.893Z,2.90
2017-09-04T09:09:54.827Z,2.50
2017-09-04T09:12:24.765Z,2.30
2017-09-04T09:14:55.014Z,2.50
2017-09-04T09:17:24.985Z,2.33
2017-09-04T09:19:55.267Z,2.27
2017-09-04T09:22:25.183Z,1.90
2017-09-04T09:24:55.393Z,2.60
2017-09-04T09:27:25.369Z,2.80
2017-09-04T09:29:55.993Z,2.53
2017-09-04T09:32:25.947Z,2.73
2017-09-04T09:34:59.261Z,3.60
2017-09-04T09:37:29.308Z,3.10
2017-09-04T09:39:59.551Z,2.50
2017-09-04T09:42:29.457Z,3.13
2017-09-04T09:44:59.747Z,3.33
2017-09-04T09:47:29.660Z,2.97
2017-09-04T09:49:59.963Z,2.97
2017-09-04T09:52:29.963Z,3.40
2017-09-04T09:55:00.320Z,3.03
2017-09-04T09:57:31.085Z,4.70
2017-09-04T10:00:01.412Z,4.23
2017-09-04T10:02:31.292Z,4.90
2017-09-04T10:05:01.492Z,4.70
2017-09-04T10:07:31.429Z,5.13
2017-09-04T10:10:01.679Z,5.30
2017-09-04T10:12:31.567Z,5.20
2017-09-04T10:15:01.768Z,5.10
2017-09-04T10:17:31.756Z,4.37
2017-09-04T10:20:02.136Z,5.10
2017-09-04T10:22:32.041Z,4.83
2017-09-04T10:25:02.293Z,4.03
2017-09-04T10:27:32.155Z,4.03
2017-09-04T10:30:02.336Z,4.27
2017-09-04T10:32:32.222Z,3.60
2017-09-04T10:35:02.619Z,4.33
2017-09-04T10:37:32.628Z,3.63
2017-09-04T10:40:02.934Z,4.50
2017-09-04T10:42:32.963Z,3.17
2017-09-04T10:45:03.189Z,4.40
2017-09-04T10:47:33.107Z,3.80
2017-09-04T10:50:03.643Z,3.40
2017-09-04T10:52:33.540Z,4.20
2017-09-04T10:55:03.856Z,3.50
2017-09-04T10:57:33.824Z,4.53
2017-09-04T11:00:04.107Z,4.30
2017-09-04T11:02:34.021Z,4.20
2017-09-04T11:05:03.932Z,3.77
2017-09-04T11:07:33.800Z,3.20
2017-09-04T11:10:03.736Z,3.43
2017-09-04T11:12:33.920Z,3.07
2017-09-04T11:15:03.789Z,3.67
2017-09-04T11:17:33.980Z,3.23
2017-09-04T11:20:03.869Z,3.00
2017-09-04T11:22:33.776Z,3.73
2017-09-04T11:25:03.757Z,3.53
2017-09-04T11:30:31.304Z,3.70
2017-09-04T11:33:01.185Z,3.30
2017-09-04T11:35:31.547Z,3.57
2017-09-04T11:38:01.479Z,2.73
2017-09-04T11:40:31.695Z,4.20
2017-09-04T11:43:02.086Z,3.50
2017-09-04T11:45:33.637Z,3.80
2017-09-04T11:48:03.493Z,3.50
2017-09-04T11:50:33.515Z,4.13
2017-09-04T11:53:03.403Z,3.60
2017-09-04T11:55:33.292Z,4.07
2017-09-04T11:58:03.652Z,3.37
2017-09-04T12:00:33.544Z,4.10
2017-09-04T12:03:03.926Z,3.93
2017-09-04T12:05:33.823Z,3.60
2017-09-04T12:08:04.211Z,4.20
2017-09-04T12:10:34.242Z,3.23
2017-09-04T12:13:04.547Z,3.17
2017-09-04T12:15:34.401Z,3.30
2017-09-04T12:18:04.677Z,3.40
2017-09-04T12:20:34.547Z,3.87
2017-09-04T12:23:04.863Z,3.77
2017-09-04T12:25:34.757Z,3.37
2017-09-04T12:28:05.080Z,4.27
2017-09-04T12:30:34.963Z,2.93
2017-09-04T12:33:04.846Z,3.43
2017-09-04T12:35:34.828Z,3.80
2017-09-04T12:38:04.709Z,3.40
2017-09-04T12:40:35.067Z,3.43
2017-09-04T12:43:05.003Z,3.57
2017-09-04T12:45:35.202Z,2.60
2017-09-04T12:48:05.137Z,3.23
2017-09-04T12:50:35.435Z,3.50
2017-09-04T12:53:05.606Z,3.20
2017-09-04T12:55:35.880Z,2.57
2017-09-04T12:58:05.830Z,2.80
2017-09-04T13:00:36.061Z,2.60
2017-09-04T13:03:06.015Z,2.70
2017-09-04T13:05:35.932Z,2.77
2017-09-04T13:08:05.819Z,2.33
2017-09-04T13:10:41.513Z,3.17
2017-09-04T13:13:16.232Z,3.30
2017-09-04T13:15:51.654Z,3.10
2017-09-04T13:21:26.745Z,3.07
2017-09-04T13:24:13.515Z,3.70
2017-09-04T13:26:48.855Z,4.30
2017-09-04T13:29:24.914Z,2.90
2017-09-04T13:35:12.782Z,2.63
2017-09-04T13:37:48.171Z,3.17
2017-09-04T13:43:28.932Z,3.50
2017-09-04T13:46:04.949Z,4.20
2017-09-04T13:48:40.423Z,3.63
2017-09-04T13:51:16.351Z,4.17
2017-09-04T13:53:51.927Z,3.87
2017-09-04T13:56:37.143Z,3.43
2017-09-04T13:59:12.538Z,3.23
2017-09-04T14:04:53.214Z,3.83
2017-09-04T14:10:44.530Z,4.00
2017-09-04T14:13:20.543Z,3.70
2017-09-04T14:16:08.347Z,3.50
2017-09-04T14:18:38.643Z,3.50
2017-09-04T14:21:09.332Z,3.30
2017-09-04T14:23:39.509Z,3.50
2017-09-04T14:26:09.586Z,3.00
2017-09-04T14:28:39.943Z,3.80
2017-09-04T14:31:09.863Z,3.73
2017-09-04T14:33:40.247Z,4.73
2017-09-04T14:36:10.126Z,4.40
2017-09-04T14:38:40.382Z,3.40
2017-09-04T14:41:11.842Z,3.80
2017-09-04T14:43:43.714Z,4.70
2017-09-04T14:46:14.542Z,5.03
2017-09-04T14:48:44.770Z,4.30
2017-09-04T14:51:14.689Z,4.17
2017-09-04T14:53:44.932Z,4.50
2017-09-04T14:56:14.912Z,4.43
2017-09-04T14:58:45.233Z,4.03
2017-09-04T15:01:15.930Z,3.67
2017-09-04T15:03:46.145Z,3.23
2017-09-04T15:06:16.093Z,3.97
2017-09-04T15:08:46.305Z,4.20
2017-09-04T15:11:16.196Z,3.77
2017-09-04T15:13:46.369Z,4.43
2017-09-04T15:16:16.280Z,4.40
2017-09-04T15:18:46.492Z,4.03
2017-09-04T15:21:16.558Z,4.00
2017-09-04T15:23:46.786Z,3.50
2017-09-04T15:26:16.699Z,4.07
2017-09-04T15:28:46.859Z,4.37
2017-09-04T15:31:16.748Z,3.57
2017-09-04T15:33:47.162Z,3.70
2017-09-04T15:36:17.110Z,3.43
2017-09-04T15:38:47.288Z,2.90
2017-09-04T15:41:17.171Z,3.10
2017-09-04T15:43:47.442Z,3.13
2017-09-04T15:46:17.338Z,3.37
2017-09-04T15:48:47.514Z,3.10
2017-09-04T15:51:17.400Z,2.87
2017-09-04T15:53:47.841Z,3.67
2017-09-04T15:56:17.824Z,3.60
2017-09-04T15:58:49.704Z,4.13
2017-09-04T16:01:20.873Z,3.80
2017-09-04T16:03:51.251Z,4.00
2017-09-04T16:06:21.814Z,3.73
2017-09-04T16:08:52.064Z,4.80
2017-09-04T16:11:22.538Z,3.93
2017-09-04T16:13:53.732Z,4.00
2017-09-04T16:16:23.656Z,3.37
2017-09-04T16:19:01.381Z,3.80
2017-09-04T16:21:48.108Z,3.70
2017-09-04T16:24:37.137Z,3.63
2017-09-04T16:27:28.515Z,4.10
2017-09-04T16:29:59.163Z,4.30
2017-09-04T16:32:34.901Z,5.97
2017-09-04T16:35:06.961Z,4.40
2017-09-04T16:37:39.475Z,3.87
2017-09-04T16:40:10.256Z,3.40
2017-09-04T16:42:55.076Z,4.87
2017-09-04T16:45:42.165Z,4.83
2017-09-04T16:48:13.852Z,3.30
2017-09-04T16:50:59.837Z,3.70
2017-09-04T16:53:33.299Z,4.13
2017-09-04T16:59:15.168Z,3.53
2017-09-04T17:01:46.439Z,4.07
2017-09-04T17:04:16.403Z,3.33
2017-09-04T17:06:46.675Z,3.50
2017-09-04T17:09:16.617Z,3.30
2017-09-04T17:11:47.635Z,3.30
2017-09-04T17:14:17.581Z,4.53
2017-09-04T17:16:49.427Z,5.20
2017-09-04T17:19:19.343Z,4.23
2017-09-04T17:21:51.865Z,4.00
2017-09-04T17:24:21.839Z,3.77
2017-09-04T17:26:52.185Z,4.00
2017-09-04T17:29:22.136Z,3.83
2017-09-04T17:31:52.442Z,3.97
2017-09-04T17:34:23.698Z,4.13
2017-09-04T17:36:54.288Z,4.60
2017-09-04T17:39:24.227Z,4.80
2017-09-04T17:41:54.552Z,3.80
2017-09-04T17:44:25.793Z,4.23
2017-09-04T17:46:56.011Z,4.77
2017-09-04T17:49:26.956Z,4.63
2017-09-04T17:51:57.226Z,4.03
2017-09-04T17:54:27.263Z,4.70
2017-09-04T17:56:58.462Z,6.17
2017-09-04T17:59:28.454Z,3.77
2017-09-04T18:01:58.696Z,5.30
2017-09-04T18:04:28.664Z,5.10
2017-09-04T18:06:59.068Z,5.23
2017-09-04T18:09:28.974Z,4.87
2017-09-04T18:11:59.427Z,5.50
2017-09-04T18:14:29.337Z,4.73
2017-09-04T18:16:59.599Z,5.13
2017-09-04T18:19:29.720Z,4.93
2017-09-04T18:22:00.123Z,4.90
2017-09-04T18:24:30.053Z,5.30
2017-09-04T18:27:00.553Z,5.47
2017-09-04T18:29:30.446Z,5.70
2017-09-04T18:32:00.966Z,5.23
2017-09-04T18:34:31.029Z,5.50
2017-09-04T18:37:01.717Z,5.60
2017-09-04T18:39:32.832Z,6.30
2017-09-04T18:42:03.173Z,6.40
2017-09-04T18:44:34.876Z,6.03
2017-09-04T18:59:54.952Z,7.90
2017-09-04T19:02:25.610Z,7.67
2017-09-04T19:04:55.760Z,8.10
2017-09-04T19:07:26.163Z,7.97
2017-09-04T19:09:56.242Z,9.03
2017-09-04T19:12:27.993Z,8.70
2017-09-04T19:14:58.020Z,9.50
2017-09-04T19:17:28.339Z,9.73
2017-09-04T19:19:58.560Z,9.23
2017-09-04T19:22:29.682Z,8.60
2017-09-04T19:24:59.958Z,8.80
2017-09-04T19:30:06.433Z,9.47
2017-09-04T19:32:36.751Z,9.17
2017-09-04T19:35:06.780Z,10.40
2017-09-04T19:37:37.077Z,10.83
2017-09-04T19:40:07.063Z,11.10
2017-09-04T19:42:37.552Z,11.07
2017-09-04T19:45:07.503Z,11.10
2017-09-04T19:47:37.994Z,12.00
2017-09-04T19:50:08.185Z,10.20
2017-09-04T19:52:38.502Z,11.70
2017-09-04T19:55:09.475Z,11.27
2017-09-04T19:57:39.768Z,11.93
2017-09-04T20:00:09.723Z,10.80
2017-09-04T20:02:40.061Z,10.87
2017-09-04T20:05:10.083Z,11.60
2017-09-04T20:07:40.551Z,11.37
2017-09-04T20:10:10.628Z,11.83
2017-09-04T20:12:40.895Z,10.80
2017-09-04T20:15:10.846Z,12.20
2017-09-04T20:17:41.125Z,12.50
2017-09-04T20:20:11.024Z,11.50
2017-09-04T20:22:40.924Z,11.67
2017-09-04T20:25:10.850Z,11.83
2017-09-04T20:27:40.831Z,11.70
2017-09-04T20:30:11.225Z,13.83
2017-09-04T20:32:41.314Z,12.77
2017-09-04T20:35:11.746Z,12.33
2017-09-04T20:37:41.741Z,12.50
2017-09-04T20:40:12.086Z,12.70
2017-09-04T20:42:42.055Z,12.60
2017-09-04T20:45:12.354Z,11.53
2017-09-04T20:47:42.340Z,12.70
2017-09-04T20:50:12.609Z,13.50
2017-09-04T20:52:42.620Z,12.97
2017-09-04T20:55:13.040Z,13.47
2017-09-04T20:57:42.970Z,15.10
2017-09-04T21:00:12.898Z,14.20
2017-09-04T21:02:42.838Z,13.70
2017-09-04T21:05:12.803Z,14.60
2017-09-04T21:07:43.047Z,15.13
2017-09-04T21:10:12.963Z,15.80
2017-09-04T21:12:43.011Z,15.53
2017-09-04T21:15:12.969Z,15.07
2017-09-04T21:17:42.927Z,15.10
2017-09-04T21:20:13.309Z,14.57
2017-09-04T21:22:43.281Z,14.60
2017-09-04T21:25:13.768Z,15.07
2017-09-04T21:27:43.702Z,13.90
2017-09-04T21:30:14.091Z,12.97
2017-09-04T21:32:44.056Z,13.60
2017-09-04T21:35:14.322Z,14.17
2017-09-04T21:37:47.556Z,14.30
2017-09-04T21:40:17.891Z,14.67
2017-09-04T21:42:47.952Z,16.00
2017-09-04T21:45:19.198Z,14.97
2017-09-04T21:47:49.297Z,15.13
2017-09-04T21:50:19.670Z,14.80
2017-09-04T21:52:49.682Z,14.53
2017-09-04T21:55:19.990Z,14.63
2017-09-04T21:57:49.996Z,14.30
2017-09-04T22:00:20.352Z,13.80
2017-09-04T22:02:50.308Z,14.80
2017-09-04T22:05:20.786Z,14.93
2017-09-04T22:07:50.790Z,14.60
2017-09-04T22:10:21.088Z,14.37
2017-09-04T22:12:51.002Z,14.63
2017-09-04T22:15:21.045Z,14.60
2017-09-04T22:17:50.936Z,14.00
2017-09-04T22:20:20.845Z,15.50
2017-09-04T22:22:51.127Z,13.37
2017-09-04T22:25:21.212Z,14.73
2017-09-04T22:27:51.554Z,15.23
2017-09-04T22:30:21.665Z,14.70
2017-09-04T22:32:51.925Z,13.03
2017-09-04T22:35:21.850Z,14.40
2017-09-04T22:37:53.084Z,15.93
2017-09-04T22:40:23.300Z,15.00
2017-09-04T22:42:53.791Z,15.57
2017-09-04T22:45:23.850Z,16.07
2017-09-04T22:47:54.228Z,15.80
2017-09-04T22:50:24.159Z,15.10
2017-09-04T22:52:54.573Z,14.83
2017-09-04T22:55:24.493Z,15.67
2017-09-04T22:57:54.891Z,15.43
2017-09-04T23:00:25.162Z,18.23
2017-09-04T23:02:55.619Z,16.40
2017-09-04T23:05:25.563Z,16.60
2017-09-04T23:07:55.991Z,17.50
2017-09-04T23:10:25.901Z,18.33
2017-09-04T23:12:56.117Z,17.33
2017-09-04T23:15:26.017Z,17.70
2017-09-04T23:17:55.995Z,17.17
2017-09-04T23:20:25.960Z,17.57
2017-09-04T23:22:55.946Z,17.17
2017-09-04T23:25:26.291Z,17.40
2017-09-04T23:27:56.208Z,18.53
2017-09-04T23:30:26.542Z,15.90
2017-09-04T23:32:56.774Z,16.20
2017-09-04T23:35:27.179Z,17.07
2017-09-04T23:37:57.095Z,15.23
2017-09-04T23:40:27.392Z,16.37
2017-09-04T23:42:57.417Z,15.27
2017-09-04T23:45:27.741Z,15.00
2017-09-04T23:47:57.730Z,16.43
2017-09-04T23:50:28.079Z,17.13
2017-09-04T23:52:58.002Z,15.93
2017-09-04T23:55:28.367Z,16.40
2017-09-04T23:57:58.291Z,17.60
